Time;durP1;ratioP1;P1;durP2;ratioP2;P2;SDS_P1;SDS_P2;PMS_P1;PMS_P2;Temp;Humidity;BMP_temperature;BMP_pressure;BME280_temperature;BME280_humidity;BME280_pressure;Samples;Min_cycle;Max_cycle;Signal;HPM_P1;HPM_P2
2023/08/15 00:01:53;;;;;;;4.68;3.30;;;18.90;99.90;;;;;;4065055;29;20032;-62
2023/08/15 00:03:54;;;;;;;4.90;3.55;;;18.90;99.90;;;;;;4065069;29;20120;-64
2023/08/15 00:05:56;;;;;;;6.22;3.55;;;18.90;99.90;;;;;;4065705;29;20083;-63
2023/08/15 00:07:57;;;;;;;7.82;3.60;;;18.90;99.90;;;;;;4064305;29;20044;-63
2023/08/15 00:09:58;;;;;;;4.47;3.30;;;18.80;99.90;;;;;;4064923;29;20512;-63
2023/08/15 00:11:59;;;;;;;3.92;3.35;;;18.80;99.90;;;;;;4064690;29;20093;-62
2023/08/15 00:14:00;;;;;;;4.40;3.70;;;18.80;99.90;;;;;;4065858;29;20024;-64
2023/08/15 00:16:02;;;;;;;6.80;4.13;;;18.70;99.90;;;;;;4064596;29;20048;-63
2023/08/15 00:18:03;;;;;;;7.15;3.72;;;18.70;99.90;;;;;;4065712;29;20047;-63
2023/08/15 00:20:05;;;;;;;4.28;3.55;;;18.70;99.90;;;;;;4064637;29;20028;-63
2023/08/15 00:22:06;;;;;;;5.22;3.78;;;18.60;99.90;;;;;;4065815;29;20111;-64
2023/08/15 00:24:07;;;;;;;6.53;3.85;;;18.60;99.90;;;;;;4064518;29;20024;-62
2023/08/15 00:26:09;;;;;;;5.45;3.20;;;18.70;99.90;;;;;;4065525;29;20048;-62
2023/08/15 00:28:10;;;;;;;6.07;3.42;;;18.70;99.90;;;;;;4064404;29;20829;-63
2023/08/15 00:30:11;;;;;;;3.42;2.80;;;18.70;99.90;;;;;;4064869;29;20056;-61
2023/08/15 00:32:13;;;;;;;4.40;3.10;;;18.70;99.90;;;;;;4065071;29;20040;-62
2023/08/15 00:34:14;;;;;;;3.88;3.10;;;18.70;99.90;;;;;;4064861;29;20064;-63
2023/08/15 00:36:17;;;;;;;6.00;3.00;;;18.60;99.90;;;;;;4064743;29;20063;-63
2023/08/15 00:38:18;;;;;;;5.65;3.53;;;18.70;99.90;;;;;;4064499;29;20106;-63
2023/08/15 00:40:19;;;;;;;6.05;3.42;;;18.70;99.90;;;;;;4065580;29;20083;-64
2023/08/15 00:42:20;;;;;;;6.78;3.13;;;18.70;99.90;;;;;;4064195;29;20548;-63
2023/08/15 00:44:21;;;;;;;4.68;3.20;;;18.70;99.90;;;;;;4065142;29;20036;-59
2023/08/15 00:46:23;;;;;;;5.07;3.00;;;18.60;99.90;;;;;;4064213;29;20028;-63
2023/08/15 00:48:29;;;;;;;5.05;2.80;;;18.60;99.90;;;;;;4065271;29;20517;-62
2023/08/15 00:50:30;;;;;;;4.60;2.95;;;18.60;99.90;;;;;;4064650;29;20180;-61
2023/08/15 00:52:32;;;;;;;5.45;2.67;;;18.50;99.90;;;;;;4065082;29;20036;-63
2023/08/15 00:54:34;;;;;;;8.30;3.20;;;18.50;99.90;;;;;;4063501;29;20040;-63
2023/08/15 00:56:35;;;;;;;3.72;2.78;;;18.50;99.90;;;;;;4065203;29;20048;-63
2023/08/15 00:58:37;;;;;;;5.68;3.20;;;18.50;99.90;;;;;;4063700;29;20446;-62
2023/08/15 01:00:38;;;;;;;3.80;2.65;;;18.50;99.90;;;;;;4065034;29;20508;-65
2023/08/15 01:02:39;;;;;;;4.60;3.05;;;18.40;99.90;;;;;;4063644;29;20103;-64
2023/08/15 01:04:41;;;;;;;6.20;2.53;;;18.40;99.90;;;;;;4078332;29;20043;-64
2023/08/15 01:06:42;;;;;;;4.55;2.80;;;18.40;99.90;;;;;;4063611;29;20525;-63
2023/08/15 01:08:44;;;;;;;3.17;2.75;;;18.40;99.90;;;;;;4064346;29;20559;-63
2023/08/15 01:10:45;;;;;;;3.47;3.05;;;18.30;99.90;;;;;;4064525;29;20170;-62
2023/08/15 01:13:05;;;;;;;3.58;2.70;;;18.30;99.90;;;;;;4063548;29;20040;-65
2023/08/15 01:15:26;;;;;;;3.38;2.42;;;18.30;99.90;;;;;;4064630;29;20072;-62
2023/08/15 01:17:44;;;;;;;4.85;2.78;;;18.30;99.90;;;;;;4064210;29;20138;-65
2023/08/15 01:19:48;;;;;;;4.97;2.65;;;18.30;99.90;;;;;;4064311;29;20485;-63
2023/08/15 01:21:54;;;;;;;5.18;3.05;;;18.30;99.90;;;;;;4066218;29;20028;-62
2023/08/15 01:23:56;;;;;;;3.33;2.78;;;18.30;99.90;;;;;;4067652;29;20457;-63
2023/08/15 01:25:57;;;;;;;4.07;2.60;;;18.30;99.90;;;;;;4067535;29;20036;-61
2023/08/15 01:27:59;;;;;;;4.70;3.05;;;18.30;99.90;;;;;;4067686;29;20036;-62
2023/08/15 01:30:00;;;;;;;6.30;3.10;;;18.30;99.90;;;;;;4066358;29;20080;-62
2023/08/15 01:32:16;;;;;;;4.10;3.22;;;18.20;99.90;;;;;;4067910;29;20096;-64
2023/08/15 01:34:22;;;;;;;3.97;3.20;;;18.20;99.90;;;;;;4066479;29;20031;-63
2023/08/15 01:36:33;;;;;;;4.80;2.80;;;18.20;99.90;;;;;;4067270;29;20111;-62
2023/08/15 01:38:50;;;;;;;6.15;3.13;;;18.20;99.90;;;;;;4066346;29;20493;-63
2023/08/15 01:40:53;;;;;;;3.22;2.75;;;18.10;99.90;;;;;;4066182;29;20123;-63
2023/08/15 01:42:57;;;;;;;5.03;2.75;;;18.10;99.90;;;;;;4067114;29;20040;-64
2023/08/15 01:45:01;;;;;;;2.60;2.40;;;18.10;99.90;;;;;;4067809;29;20039;-61
2023/08/15 01:47:02;;;;;;;9.82;3.28;;;18.10;99.90;;;;;;4066859;29;20476;-64
2023/08/15 01:49:03;;;;;;;3.90;3.30;;;18.10;99.90;;;;;;4067993;29;20058;-62
2023/08/15 01:51:04;;;;;;;5.80;3.63;;;18.00;99.90;;;;;;4067213;29;20032;-60
2023/08/15 01:53:05;;;;;;;5.45;3.80;;;17.90;99.90;;;;;;4067592;29;20044;-62
2023/08/15 01:55:07;;;;;;;4.85;3.53;;;17.90;99.90;;;;;;4066810;29;20040;-61
2023/08/15 01:57:08;;;;;;;5.18;3.75;;;17.90;99.90;;;;;;4067306;29;20453;-62
2023/08/15 01:59:09;;;;;;;4.55;3.35;;;17.90;99.90;;;;;;4066398;29;20087;-62
2023/08/15 02:01:10;;;;;;;5.38;3.58;;;17.90;99.90;;;;;;4067882;29;20040;-63
2023/08/15 02:03:12;;;;;;;4.22;3.72;;;17.90;99.90;;;;;;4066608;29;20099;-62
2023/08/15 02:05:13;;;;;;;7.65;3.78;;;17.90;99.90;;;;;;4067389;29;20161;-62
2023/08/15 02:07:14;;;;;;;4.50;3.53;;;17.80;99.90;;;;;;4067007;29;20088;-63
2023/08/15 02:09:16;;;;;;;5.35;3.00;;;17.80;99.90;;;;;;4067058;29;20088;-63
2023/08/15 02:11:17;;;;;;;7.07;3.28;;;17.80;99.90;;;;;;4067121;29;20036;-64
2023/08/15 02:13:18;;;;;;;5.50;3.22;;;17.80;99.90;;;;;;4066475;29;20091;-63
2023/08/15 02:15:19;;;;;;;6.38;3.13;;;17.80;99.90;;;;;;4067420;29;20103;-63
2023/08/15 02:17:20;;;;;;;5.70;3.88;;;17.80;99.90;;;;;;4066638;29;20056;-62
2023/08/15 02:19:21;;;;;;;11.73;3.95;;;17.90;99.90;;;;;;4067628;29;20047;-63
2023/08/15 02:21:22;;;;;;;4.72;3.88;;;17.80;99.90;;;;;;4066957;29;20032;-63
2023/08/15 02:23:24;;;;;;;6.95;3.63;;;17.70;99.90;;;;;;4067567;29;20417;-61
2023/08/15 02:25:25;;;;;;;5.43;4.03;;;17.60;99.90;;;;;;4066396;29;20028;-63
2023/08/15 02:27:26;;;;;;;6.47;5.10;;;17.60;99.90;;;;;;4067402;29;20067;-61
2023/08/15 02:29:27;;;;;;;7.43;4.22;;;17.50;99.90;;;;;;4066192;29;20032;-61
2023/08/15 02:31:30;;;;;;;7.85;4.20;;;17.40;99.90;;;;;;4067315;29;20044;-62
2023/08/15 02:33:33;;;;;;;5.88;4.10;;;17.30;99.90;;;;;;4065544;29;20075;-62
2023/08/15 02:35:39;;;;;;;6.85;4.43;;;17.20;99.90;;;;;;4067346;29;20108;-63
2023/08/15 02:37:40;;;;;;;5.80;4.10;;;17.20;99.90;;;;;;4065881;29;20481;-60
2023/08/15 02:39:41;;;;;;;6.32;4.47;;;17.20;99.90;;;;;;4067159;29;20083;-63
2023/08/15 02:41:43;;;;;;;9.15;4.45;;;17.20;99.90;;;;;;4066555;29;20044;-60
2023/08/15 02:43:45;;;;;;;5.82;4.00;;;17.10;99.90;;;;;;4066579;29;20044;-63
2023/08/15 02:45:46;;;;;;;8.38;3.97;;;17.20;99.90;;;;;;4066431;29;20087;-61
2023/08/15 02:47:47;;;;;;;4.95;4.15;;;17.10;99.90;;;;;;4065973;29;20660;-58
2023/08/15 02:49:48;;;;;;;5.63;4.22;;;17.10;99.90;;;;;;4066961;29;20034;-63
2023/08/15 02:51:49;;;;;;;5.15;3.60;;;17.10;99.90;;;;;;4066450;29;20123;-63
2023/08/15 02:53:50;;;;;;;4.00;3.60;;;17.10;99.90;;;;;;4066985;29;20032;-62
2023/08/15 02:55:51;;;;;;;4.70;4.15;;;17.00;99.90;;;;;;4065627;29;20092;-62
2023/08/15 02:57:53;;;;;;;5.95;3.47;;;17.00;99.90;;;;;;4066467;29;20048;-62
2023/08/15 02:59:54;;;;;;;4.38;3.85;;;17.10;99.90;;;;;;4065586;29;20539;-63
2023/08/15 03:01:55;;;;;;;4.55;2.90;;;17.10;99.90;;;;;;4066629;29;20084;-62
2023/08/15 03:03:56;;;;;;;5.88;3.53;;;17.10;99.90;;;;;;4065587;29;20040;-62
2023/08/15 03:06:03;;;;;;;5.28;3.50;;;17.20;99.90;;;;;;4065660;29;20417;-62
2023/08/15 03:08:05;;;;;;;4.90;3.38;;;17.10;99.90;;;;;;4064963;29;20056;-62
2023/08/15 03:10:06;;;;;;;4.47;3.75;;;17.10;99.90;;;;;;4066714;29;20158;-62
2023/08/15 03:12:07;;;;;;;4.53;3.65;;;17.10;99.90;;;;;;4065654;29;20095;-62
2023/08/15 03:14:08;;;;;;;7.20;3.53;;;17.10;99.90;;;;;;4065836;29;20426;-63
2023/08/15 03:16:09;;;;;;;9.63;3.50;;;17.20;99.90;;;;;;4065722;29;20111;-61
2023/08/15 03:18:11;;;;;;;6.13;3.70;;;17.10;99.90;;;;;;4065684;29;20040;-62
2023/08/15 03:20:12;;;;;;;4.63;3.67;;;17.20;99.90;;;;;;4066136;29;20426;-62
2023/08/15 03:22:13;;;;;;;10.18;3.40;;;17.20;99.90;;;;;;4065877;29;20036;-62
2023/08/15 03:24:15;;;;;;;4.13;3.35;;;17.20;99.90;;;;;;4066151;29;20103;-62
2023/08/15 03:26:16;;;;;;;12.95;3.67;;;17.20;99.90;;;;;;4064951;29;20402;-61
2023/08/15 03:28:17;;;;;;;4.68;3.38;;;17.20;99.90;;;;;;4066323;29;20044;-59
2023/08/15 03:30:18;;;;;;;5.30;3.30;;;17.20;99.90;;;;;;4065375;29;20044;-64
2023/08/15 03:32:19;;;;;;;4.40;3.25;;;17.20;99.90;;;;;;4065876;29;20036;-63
2023/08/15 03:34:21;;;;;;;5.10;3.30;;;17.30;99.90;;;;;;4065278;29;20102;-62
2023/08/15 03:36:22;;;;;;;7.03;4.18;;;17.40;99.90;;;;;;4065670;29;20116;-63
2023/08/15 03:38:23;;;;;;;4.97;4.20;;;17.40;99.90;;;;;;4064406;29;20035;-62
2023/08/15 03:40:24;;;;;;;5.88;3.97;;;17.40;99.90;;;;;;4066457;29;20028;-63
2023/08/15 03:42:25;;;;;;;6.80;4.05;;;17.40;99.90;;;;;;4064901;29;20552;-60
2023/08/15 03:44:26;;;;;;;5.13;3.88;;;17.50;99.90;;;;;;4065634;29;20080;-63
2023/08/15 03:46:27;;;;;;;5.57;3.60;;;17.70;99.90;;;;;;4065294;29;20464;-62
2023/08/15 03:48:30;;;;;;;6.13;4.43;;;17.80;99.90;;;;;;4065382;29;20509;-62
2023/08/15 03:50:38;;;;;;;5.30;3.83;;;18.00;99.90;;;;;;4065560;29;20024;-62
2023/08/15 03:52:39;;;;;;;8.55;4.80;;;18.20;99.90;;;;;;4065584;29;20024;-63
2023/08/15 03:54:40;;;;;;;15.27;4.63;;;18.30;99.90;;;;;;4065624;29;20032;-62
2023/08/15 03:56:42;;;;;;;10.75;4.70;;;18.60;99.90;;;;;;4064748;29;20080;-65
2023/08/15 03:58:44;;;;;;;5.55;4.25;;;18.80;99.90;;;;;;4065603;29;20040;-63
2023/08/15 04:00:45;;;;;;;9.60;4.40;;;18.90;99.90;;;;;;4064659;29;20087;-62
2023/08/15 04:02:47;;;;;;;4.93;4.03;;;19.20;99.90;;;;;;4075428;29;20095;-63
2023/08/15 04:04:48;;;;;;;5.00;4.32;;;19.50;99.90;;;;;;4078860;29;20099;-62
2023/08/15 04:06:49;;;;;;;5.07;3.38;;;19.80;99.90;;;;;;4080733;29;20522;-65
2023/08/15 04:08:50;;;;;;;4.20;3.28;;;20.10;99.90;;;;;;4080028;29;20047;-63
2023/08/15 04:10:51;;;;;;;5.70;3.50;;;20.40;99.90;;;;;;4081153;29;20043;-64
2023/08/15 04:12:52;;;;;;;4.60;3.30;;;20.70;99.90;;;;;;4070243;29;20051;-62
2023/08/15 04:14:53;;;;;;;5.05;3.55;;;21.00;99.90;;;;;;4080920;29;20102;-63
2023/08/15 04:16:55;;;;;;;5.78;3.40;;;21.20;99.90;;;;;;4066750;29;20052;-62
2023/08/15 04:18:56;;;;;;;4.50;3.42;;;21.50;99.90;;;;;;4065270;29;20107;-64
2023/08/15 04:20:57;;;;;;;7.78;3.05;;;21.80;99.90;;;;;;4064990;29;20056;-65
2023/08/15 04:22:58;;;;;;;5.47;3.00;;;21.70;99.90;;;;;;4065478;29;20044;-63
2023/08/15 04:24:59;;;;;;;6.80;4.43;;;21.70;99.90;;;;;;4067739;29;20094;-63
2023/08/15 04:27:01;;;;;;;4.22;3.10;;;21.50;99.90;;;;;;4080360;29;20079;-66
2023/08/15 04:29:02;;;;;;;10.40;3.53;;;21.60;99.90;;;;;;4080496;29;20071;-63
2023/08/15 04:31:04;;;;;;;7.60;3.88;;;21.80;99.90;;;;;;4066573;29;20080;-64
2023/08/15 04:33:05;;;;;;;10.27;4.00;;;22.20;99.90;;;;;;4065409;29;20035;-61
2023/08/15 04:35:07;;;;;;;3.88;2.85;;;22.50;99.90;;;;;;4064295;29;20036;-62
2023/08/15 04:37:09;;;;;;;6.47;3.88;;;22.90;99.90;;;;;;4065237;29;20094;-62
2023/08/15 04:39:10;;;;;;;3.50;3.08;;;23.20;99.90;;;;;;4064288;29;20697;-62
2023/08/15 04:41:11;;;;;;;3.45;2.97;;;23.50;99.90;;;;;;4065227;29;20121;-62
2023/08/15 04:43:12;;;;;;;4.05;2.92;;;23.70;99.90;;;;;;4068220;29;20048;-63
2023/08/15 04:45:13;;;;;;;12.35;3.45;;;24.00;99.90;;;;;;4078715;29;20043;-61
2023/08/15 04:47:15;;;;;;;6.95;3.40;;;24.40;99.90;;;;;;4065285;29;20512;-64
2023/08/15 04:49:16;;;;;;;3.58;3.00;;;24.50;99.90;;;;;;4064759;29;20044;-63
2023/08/15 04:51:18;;;;;;;4.97;2.92;;;24.40;99.90;;;;;;4064163;29;20166;-62
2023/08/15 04:53:19;;;;;;;6.10;3.10;;;24.50;99.90;;;;;;4064960;29;20036;-62
2023/08/15 04:55:20;;;;;;;6.20;3.17;;;24.90;99.90;;;;;;4064940;29;20038;-63
2023/08/15 04:57:21;;;;;;;6.10;3.00;;;25.30;99.90;;;;;;4078057;29;20055;-63
2023/08/15 04:59:22;;;;;;;5.60;2.95;;;25.70;99.90;;;;;;4064401;29;20052;-64
2023/08/15 05:01:24;;;;;;;4.63;2.90;;;26.00;99.90;;;;;;4073604;29;20118;-64
2023/08/15 05:03:25;;;;;;;3.50;2.67;;;26.30;99.90;;;;;;4080445;29;20032;-63
2023/08/15 05:05:26;;;;;;;4.85;2.90;;;26.70;99.50;;;;;;4079625;29;20111;-62
2023/08/15 05:07:27;;;;;;;3.90;2.30;;;27.00;98.90;;;;;;4065918;29;20084;-63
2023/08/15 05:09:29;;;;;;;7.88;2.47;;;27.20;98.40;;;;;;4063947;29;20028;-62
2023/08/15 05:11:30;;;;;;;2.80;1.90;;;27.40;97.90;;;;;;4065037;29;20044;-63
2023/08/15 05:13:31;;;;;;;3.67;2.40;;;27.60;97.50;;;;;;4066226;29;20016;-62
2023/08/15 05:15:32;;;;;;;3.95;2.45;;;27.90;97.00;;;;;;4066076;29;20052;-64
2023/08/15 05:17:34;;;;;;;6.85;2.35;;;28.20;96.60;;;;;;4063824;29;20044;-64
2023/08/15 05:19:35;;;;;;;3.38;2.20;;;28.40;96.10;;;;;;4064881;29;20095;-62
2023/08/15 05:21:36;;;;;;;4.15;2.35;;;28.70;95.40;;;;;;4070353;29;20040;-62
2023/08/15 05:23:37;;;;;;;3.63;2.47;;;29.00;95.00;;;;;;4070075;29;20040;-64
2023/08/15 05:25:38;;;;;;;4.95;2.80;;;29.00;94.40;;;;;;4063727;29;20429;-63
2023/08/15 05:27:40;;;;;;;4.93;3.10;;;29.00;94.20;;;;;;4065981;29;20040;-65
2023/08/15 05:29:41;;;;;;;5.60;3.10;;;29.10;94.00;;;;;;4077974;29;20413;-64
2023/08/15 05:31:42;;;;;;;6.30;3.30;;;29.20;93.80;;;;;;4078135;29;20032;-64
2023/08/15 05:33:44;;;;;;;6.57;2.92;;;29.30;93.50;;;;;;4076775;29;20048;-63
2023/08/15 05:35:45;;;;;;;3.45;2.75;;;29.60;93.10;;;;;;4074910;29;20114;-62
2023/08/15 05:37:46;;;;;;;5.70;2.80;;;29.60;92.60;;;;;;4076249;29;20142;-61
2023/08/15 05:39:47;;;;;;;3.28;2.35;;;29.50;92.40;;;;;;4068788;29;20107;-63
2023/08/15 05:41:48;;;;;;;4.28;2.63;;;29.60;92.10;;;;;;4075217;29;20039;-61
2023/08/15 05:43:49;;;;;;;5.18;2.28;;;29.50;92.00;;;;;;4073131;29;20043;-63
2023/08/15 05:45:50;;;;;;;4.25;1.90;;;29.40;91.90;;;;;;4069990;29;20068;-64
2023/08/15 05:47:51;;;;;;;4.30;2.78;;;29.90;91.60;;;;;;4066049;29;20048;-63
2023/08/15 05:49:52;;;;;;;5.68;2.85;;;30.30;91.00;;;;;;4065678;29;20479;-62
2023/08/15 05:51:54;;;;;;;3.15;2.50;;;30.50;90.70;;;;;;4064108;29;20059;-63
2023/08/15 05:53:55;;;;;;;3.88;2.88;;;30.60;90.40;;;;;;4064512;29;20032;-61
2023/08/15 05:55:56;;;;;;;6.32;3.83;;;30.50;90.10;;;;;;4066552;29;20032;-62
2023/08/15 05:57:57;;;;;;;2.75;2.30;;;30.50;90.00;;;;;;4063819;29;20560;-65
2023/08/15 05:59:58;;;;;;;3.88;2.40;;;30.90;89.50;;;;;;4063270;29;20122;-61
2023/08/15 06:01:59;;;;;;;6.53;3.08;;;31.20;89.00;;;;;;4066223;29;20444;-61
2023/08/15 06:04:01;;;;;;;8.13;4.05;;;31.20;88.60;;;;;;4063721;29;20048;-62
2023/08/15 06:06:02;;;;;;;4.43;2.88;;;31.50;87.90;;;;;;4074843;29;20047;-61
2023/08/15 06:08:04;;;;;;;31.20;12.05;;;31.50;87.20;;;;;;4077377;29;20403;-64
2023/08/15 06:10:05;;;;;;;25.85;10.63;;;31.30;87.00;;;;;;4067369;29;20040;-62
2023/08/15 06:12:07;;;;;;;8.80;4.65;;;31.20;86.80;;;;;;4069934;29;20457;-63
2023/08/15 06:14:08;;;;;;;4.53;2.42;;;31.10;87.00;;;;;;4065727;29;20040;-61
2023/08/15 06:16:09;;;;;;;6.47;2.45;;;30.90;87.00;;;;;;4067272;29;20032;-62
2023/08/15 06:18:10;;;;;;;8.13;3.03;;;31.10;87.10;;;;;;4066031;29;20107;-65
2023/08/15 06:20:11;;;;;;;11.32;3.47;;;31.30;86.60;;;;;;4067019;29;20093;-64
2023/08/15 06:22:13;;;;;;;10.13;3.70;;;31.50;86.30;;;;;;4066431;29;20044;-65
2023/08/15 06:24:14;;;;;;;7.85;3.30;;;31.30;86.10;;;;;;4072924;29;20572;-63
2023/08/15 06:26:15;;;;;;;18.95;4.40;;;31.00;86.80;;;;;;4066054;29;20087;-63
2023/08/15 06:28:18;;;;;;;10.38;3.10;;;31.00;86.80;;;;;;4080125;29;20036;-63
2023/08/15 06:30:19;;;;;;;4.43;3.20;;;30.60;87.20;;;;;;4082057;29;20027;-66
2023/08/15 06:32:38;;;;;;;8.40;3.95;;;30.00;88.10;;;;;;4078358;29;20072;-67
2023/08/15 06:34:39;;;;;;;9.18;3.70;;;29.20;89.20;;;;;;4065505;29;20555;-65
2023/08/15 06:36:40;;;;;;;6.78;3.95;;;29.20;90.30;;;;;;4067071;29;20465;-63
2023/08/15 06:38:41;;;;;;;4.28;3.08;;;29.10;90.00;;;;;;4068783;29;20780;-65
2023/08/15 06:40:43;;;;;;;5.88;3.17;;;28.60;90.20;;;;;;4067797;29;20458;-62
2023/08/15 06:42:44;;;;;;;4.47;3.00;;;28.30;90.50;;;;;;4067721;29;20325;-64
2023/08/15 06:44:46;;;;;;;3.67;3.05;;;28.50;90.50;;;;;;4065206;29;20044;-64
2023/08/15 06:46:49;;;;;;;4.75;3.15;;;28.50;90.50;;;;;;4066380;29;20500;-65
2023/08/15 06:48:50;;;;;;;5.55;3.92;;;28.70;90.40;;;;;;4065597;29;20422;-62
2023/08/15 06:50:51;;;;;;;4.10;3.20;;;28.70;90.20;;;;;;4055295;29;20399;-61
2023/08/15 06:52:52;;;;;;;6.45;2.72;;;28.40;90.30;;;;;;4050527;29;20036;-63
2023/08/15 06:54:53;;;;;;;5.85;3.40;;;28.30;90.20;;;;;;4066595;29;20397;-61
2023/08/15 06:56:54;;;;;;;5.75;3.45;;;28.30;90.30;;;;;;4064094;29;20028;-64
2023/08/15 06:58:56;;;;;;;5.07;3.00;;;28.80;90.20;;;;;;4078214;29;20052;-64
2023/08/15 07:00:57;;;;;;;4.13;3.28;;;29.00;90.00;;;;;;4067444;29;20084;-66
2023/08/15 07:02:58;;;;;;;3.75;2.63;;;28.70;90.00;;;;;;4081469;29;20449;-67
2023/08/15 07:04:59;;;;;;;3.25;2.47;;;28.30;90.20;;;;;;4080878;29;20397;-65
2023/08/15 07:07:00;;;;;;;3.17;2.85;;;28.20;90.20;;;;;;4069764;29;20107;-65
2023/08/15 07:09:02;;;;;;;6.75;3.17;;;28.20;90.30;;;;;;4066464;29;20035;-64
2023/08/15 07:11:04;;;;;;;4.82;2.90;;;28.40;90.30;;;;;;4070439;29;20167;-65
2023/08/15 07:13:06;;;;;;;5.07;3.03;;;28.20;90.30;;;;;;4065924;29;20048;-62
2023/08/15 07:15:07;;;;;;;4.97;2.60;;;28.60;90.10;;;;;;4065051;29;20040;-67
2023/08/15 07:17:08;;;;;;;4.03;3.28;;;28.70;88.90;;;;;;4064891;29;20048;-62
2023/08/15 07:19:09;;;;;;;3.10;2.60;;;28.40;88.90;;;;;;4064333;29;20028;-66
2023/08/15 07:21:10;;;;;;;5.25;3.15;;;28.10;89.30;;;;;;4067206;29;20044;-67
2023/08/15 07:23:11;;;;;;;4.90;3.30;;;27.70;90.10;;;;;;4064271;29;20301;-62
2023/08/15 07:25:13;;;;;;;6.30;2.83;;;27.60;90.40;;;;;;4079345;29;20189;-67
2023/08/15 07:27:14;;;;;;;5.93;3.20;;;27.20;90.30;;;;;;4080739;29;20035;-63
2023/08/15 07:29:15;;;;;;;5.25;2.95;;;26.90;90.60;;;;;;4081934;29;20453;-63
2023/08/15 07:31:16;;;;;;;4.30;2.40;;;26.80;90.70;;;;;;4077807;29;20084;-65
2023/08/15 07:33:17;;;;;;;3.65;2.70;;;26.70;90.80;;;;;;4081778;29;20087;-63
2023/08/15 07:35:18;;;;;;;6.38;2.83;;;26.80;90.90;;;;;;4080462;29;20020;-67
2023/08/15 07:37:19;;;;;;;4.30;3.03;;;27.00;90.70;;;;;;4080208;29;20047;-62
2023/08/15 07:39:21;;;;;;;7.50;3.17;;;26.90;90.40;;;;;;4080829;29;20053;-63
2023/08/15 07:41:23;;;;;;;3.00;2.45;;;26.80;90.50;;;;;;4078832;29;20044;-67
2023/08/15 07:43:24;;;;;;;4.97;3.03;;;26.80;90.50;;;;;;4078547;29;20039;-62
2023/08/15 07:45:25;;;;;;;9.45;3.35;;;26.70;90.40;;;;;;4079577;29;20094;-67
2023/08/15 07:47:26;;;;;;;4.35;2.58;;;26.80;90.60;;;;;;4081471;29;20040;-70
2023/08/15 07:49:30;;;;;;;4.85;2.53;;;26.90;90.20;;;;;;4080414;29;20535;-62
2023/08/15 07:51:31;;;;;;;3.90;2.75;;;26.60;90.30;;;;;;4080352;29;20090;-68
2023/08/15 07:53:32;;;;;;;5.28;2.30;;;26.60;90.30;;;;;;4080239;29;20044;-65
2023/08/15 07:55:33;;;;;;;4.55;2.70;;;26.70;90.10;;;;;;4081101;29;20040;-63
2023/08/15 07:57:35;;;;;;;5.30;2.70;;;26.90;90.00;;;;;;4080231;29;20444;-66
2023/08/15 07:59:36;;;;;;;8.07;2.35;;;27.10;89.70;;;;;;4080950;29;20039;-62
2023/08/15 08:01:37;;;;;;;6.07;3.08;;;27.40;89.10;;;;;;4079606;29;20032;-63
2023/08/15 08:03:42;;;;;;;5.35;2.80;;;27.50;88.40;;;;;;4065859;29;20433;-61
2023/08/15 08:05:43;;;;;;;3.85;2.45;;;27.60;88.30;;;;;;4065267;29;20568;-63
2023/08/15 08:07:45;;;;;;;4.07;2.20;;;27.50;88.50;;;;;;4067532;29;20040;-62
2023/08/15 08:09:46;;;;;;;4.57;2.53;;;27.60;88.60;;;;;;4078823;29;20035;-67
2023/08/15 08:11:48;;;;;;;9.98;2.72;;;27.70;88.60;;;;;;4072667;29;20079;-67
2023/08/15 08:13:49;;;;;;;3.33;2.15;;;27.80;88.40;;;;;;4064294;29;20028;-61
2023/08/15 08:15:50;;;;;;;3.45;2.70;;;27.80;88.60;;;;;;4065201;29;20044;-61
2023/08/15 08:17:51;;;;;;;3.00;2.55;;;27.70;88.70;;;;;;4075365;29;20044;-62
2023/08/15 08:19:53;;;;;;;4.85;2.72;;;27.60;89.10;;;;;;4064466;29;20190;-65
2023/08/15 08:21:54;;;;;;;4.88;2.70;;;27.50;89.40;;;;;;4064771;29;20044;-61
2023/08/15 08:23:55;;;;;;;3.00;2.47;;;27.50;89.40;;;;;;4064571;29;20473;-68
2023/08/15 08:25:56;;;;;;;5.35;2.58;;;27.50;89.40;;;;;;4064316;29;20040;-63
2023/08/15 08:27:57;;;;;;;4.18;2.35;;;27.50;89.30;;;;;;4064526;29;20044;-66
2023/08/15 08:29:58;;;;;;;3.63;2.10;;;27.60;89.10;;;;;;4076210;29;20464;-62
2023/08/15 08:31:59;;;;;;;3.28;2.25;;;27.60;88.60;;;;;;4066600;29;20036;-62
2023/08/15 08:34:01;;;;;;;3.65;2.40;;;27.80;88.60;;;;;;4064908;29;20439;-61
2023/08/15 08:36:02;;;;;;;2.50;2.30;;;28.00;88.00;;;;;;4063907;29;20119;-61
2023/08/15 08:38:03;;;;;;;2.88;2.10;;;28.10;87.30;;;;;;4065226;29;20044;-64
2023/08/15 08:40:05;;;;;;;2.22;2.03;;;28.10;86.90;;;;;;4064607;29;20052;-61
2023/08/15 08:42:07;;;;;;;2.95;2.00;;;27.90;86.90;;;;;;4067082;29;20100;-62
2023/08/15 08:44:10;;;;;;;5.18;2.00;;;28.20;87.10;;;;;;4067307;29;20024;-60
2023/08/15 08:46:13;;;;;;;6.28;2.20;;;28.50;86.90;;;;;;4063744;29;20032;-63
2023/08/15 08:48:16;;;;;;;2.22;1.90;;;28.80;86.50;;;;;;4063886;29;20469;-60
2023/08/15 08:50:17;;;;;;;7.30;2.10;;;29.00;86.00;;;;;;4063696;29;20445;-61
2023/08/15 08:52:18;;;;;;;3.15;2.00;;;29.00;85.60;;;;;;4064885;29;20048;-64
2023/08/15 08:54:19;;;;;;;3.50;2.05;;;28.90;85.60;;;;;;4055086;29;20040;-62
2023/08/15 08:56:25;;;;;;;3.40;2.30;;;29.00;85.40;;;;;;4064730;29;20095;-63
2023/08/15 08:58:29;;;;;;;4.80;2.22;;;29.00;85.20;;;;;;4067516;29;20091;-64
2023/08/15 09:00:32;;;;;;;3.40;1.63;;;29.20;85.80;;;;;;4080532;29;20051;-63
2023/08/15 09:02:35;;;;;;;2.75;2.17;;;29.40;85.10;;;;;;4078916;29;20039;-61
2023/08/15 09:04:36;;;;;;;3.83;1.35;;;29.40;84.80;;;;;;4078715;29;20079;-63
2023/08/15 09:06:37;;;;;;;3.92;2.10;;;29.50;83.10;;;;;;4078669;29;20102;-62
2023/08/15 09:08:38;;;;;;;3.90;1.92;;;29.20;81.80;;;;;;4079755;29;20035;-62
2023/08/15 09:10:39;;;;;;;1.65;1.55;;;29.20;81.70;;;;;;4074917;29;20032;-62
2023/08/15 09:12:42;;;;;;;8.02;2.17;;;29.20;81.50;;;;;;4064569;29;20393;-63
2023/08/15 09:14:43;;;;;;;4.43;1.90;;;29.20;81.60;;;;;;4063296;29;20032;-63
2023/08/15 09:16:48;;;;;;;2.00;1.70;;;29.30;81.10;;;;;;4064361;29;20406;-65
2023/08/15 09:18:49;;;;;;;5.10;1.63;;;29.40;80.60;;;;;;4064338;29;20044;-64
2023/08/15 09:20:50;;;;;;;3.03;1.52;;;29.60;80.90;;;;;;4064188;29;20052;-67
2023/08/15 09:22:56;;;;;;;3.53;2.00;;;29.70;80.40;;;;;;4064164;29;20095;-63
2023/08/15 09:24:57;;;;;;;4.93;2.05;;;29.60;80.30;;;;;;4062493;29;20040;-64
2023/08/15 09:27:05;;;;;;;4.05;1.70;;;29.80;80.60;;;;;;4064627;29;20076;-67
2023/08/15 09:29:07;;;;;;;2.83;1.58;;;29.70;78.80;;;;;;4074122;29;20087;-61
2023/08/15 09:31:10;;;;;;;1.75;1.42;;;29.70;80.10;;;;;;4066595;29;20027;-62
2023/08/15 09:33:14;;;;;;;4.43;1.55;;;29.80;79.80;;;;;;4078767;29;20437;-65
2023/08/15 09:35:17;;;;;;;3.33;1.80;;;29.70;79.20;;;;;;4076508;29;20075;-63
2023/08/15 09:37:21;;;;;;;4.32;1.48;;;29.50;79.80;;;;;;4063284;29;20103;-63
2023/08/15 09:39:22;;;;;;;4.07;1.63;;;29.50;80.10;;;;;;4064399;29;20457;-62
2023/08/15 09:41:25;;;;;;;5.72;1.80;;;29.40;79.60;;;;;;4063147;29;20425;-65
2023/08/15 09:43:26;;;;;;;2.70;1.35;;;29.40;79.50;;;;;;4066615;29;20040;-62
2023/08/15 09:45:27;;;;;;;7.53;1.83;;;29.30;79.00;;;;;;4066259;29;20036;-63
2023/08/15 09:47:29;;;;;;;3.45;1.65;;;29.30;78.80;;;;;;4065649;29;20134;-61
2023/08/15 09:49:30;;;;;;;3.70;1.58;;;29.30;79.30;;;;;;4066606;29;20047;-61
2023/08/15 09:51:33;;;;;;;3.15;1.50;;;29.30;79.50;;;;;;4067316;29;20446;-61
2023/08/15 09:53:35;;;;;;;3.53;1.40;;;29.30;79.40;;;;;;4067049;29;20036;-62
2023/08/15 09:55:38;;;;;;;4.32;1.63;;;29.30;79.60;;;;;;4067383;29;20036;-64
2023/08/15 09:57:43;;;;;;;4.53;1.50;;;29.20;79.40;;;;;;4066545;29;20488;-64
2023/08/15 09:59:44;;;;;;;3.95;1.42;;;29.20;79.30;;;;;;4067127;29;20060;-65
2023/08/15 10:01:46;;;;;;;5.05;1.60;;;29.10;79.50;;;;;;4066418;29;20036;-62
2023/08/15 10:03:49;;;;;;;3.88;1.95;;;28.90;79.50;;;;;;4066854;29;20044;-65
2023/08/15 10:05:54;;;;;;;4.38;1.50;;;28.70;79.60;;;;;;4066493;29;20036;-63
2023/08/15 10:07:58;;;;;;;3.13;1.90;;;28.60;79.80;;;;;;4076919;29;20027;-61
2023/08/15 10:10:04;;;;;;;8.23;2.05;;;28.60;80.00;;;;;;4069625;29;20095;-62
2023/08/15 10:12:06;;;;;;;3.15;1.70;;;28.60;80.80;;;;;;4071448;29;20103;-63
2023/08/15 10:14:10;;;;;;;1.67;1.58;;;28.60;80.80;;;;;;4066378;29;20032;-62
2023/08/15 10:16:12;;;;;;;1.90;1.73;;;28.60;80.20;;;;;;4065446;29;20111;-63
2023/08/15 10:18:14;;;;;;;5.22;1.88;;;28.60;80.50;;;;;;4066760;29;20044;-64
2023/08/15 10:20:18;;;;;;;5.57;2.70;;;28.50;81.00;;;;;;4066195;29;20032;-64
2023/08/15 10:22:20;;;;;;;7.13;1.70;;;28.60;81.50;;;;;;4067289;29;20028;-63
2023/08/15 10:24:22;;;;;;;3.65;1.63;;;28.60;81.70;;;;;;4065937;29;20040;-62
2023/08/15 10:26:23;;;;;;;2.53;1.63;;;28.60;81.10;;;;;;4066922;29;20036;-60
2023/08/15 10:28:29;;;;;;;4.13;1.77;;;28.60;81.20;;;;;;4065698;29;20083;-62
2023/08/15 10:30:40;;;;;;;11.15;2.22;;;28.70;81.20;;;;;;4066658;29;20425;-62
2023/08/15 10:32:41;;;;;;;2.83;1.73;;;28.80;81.50;;;;;;4065662;29;20028;-61
2023/08/15 10:34:48;;;;;;;4.45;1.65;;;29.00;81.20;;;;;;4066959;29;20497;-62